Time;durP1;ratioP1;P1;durP2;ratioP2;P2;SDS_P1;SDS_P2;PMS_P1;PMS_P2;Temp;Humidity;BMP_temperature;BMP_pressure;BME280_temperature;BME280_humidity;BME280_pressure;Samples;Min_cycle;Max_cycle;Signal;HPM_P1;HPM_P2
2022/11/15 00:00:12;;;;;;;26.40;13.08;;;;;;;1.99;95.24;98253.03;1639213;87;21052;-74
2022/11/15 00:02:59;;;;;;;30.15;14.70;;;;;;;1.95;95.14;98246.91;1633865;87;21103;-74
2022/11/15 00:05:44;;;;;;;36.90;14.83;;;;;;;1.93;95.27;98257.79;1613343;87;20981;-74
2022/11/15 00:08:32;;;;;;;30.32;14.78;;;;;;;1.92;95.39;98249.92;1586656;90;21045;-73
2022/11/15 00:11:17;;;;;;;27.87;12.93;;;;;;;1.89;95.23;98244.66;1594948;90;21095;-74
2022/11/15 00:14:03;;;;;;;30.32;13.45;;;;;;;1.88;95.32;98244.22;1609700;89;21502;-74
2022/11/15 00:16:48;;;;;;;23.55;12.85;;;;;;;1.87;95.29;98239.41;1595057;90;21024;-74
2022/11/15 00:19:33;;;;;;;23.22;11.97;;;;;;;1.73;94.38;98248.44;1612486;88;21131;-76
2022/11/15 00:22:18;;;;;;;25.40;12.73;;;;;;;1.69;95.42;98244.03;1596121;90;21092;-74
2022/11/15 00:25:04;;;;;;;24.25;11.30;;;;;;;1.66;95.26;98239.66;1609447;89;21002;-74
2022/11/15 00:27:51;;;;;;;25.77;12.43;;;;;;;1.63;95.21;98234.42;1594337;90;21064;-74
2022/11/15 00:30:36;;;;;;;27.48;13.55;;;;;;;1.63;95.43;98238.34;1599175;89;21087;-75
2022/11/15 00:33:21;;;;;;;29.75;14.13;;;;;;;1.64;94.78;98233.97;1590487;90;21115;-74
2022/11/15 00:36:10;;;;;;;28.02;12.80;;;;;;;1.61;94.99;98233.50;1604053;89;21449;-74
2022/11/15 00:38:56;;;;;;;28.60;14.73;;;;;;;1.63;95.19;98227.00;1581582;90;21025;-74
2022/11/15 00:41:41;;;;;;;31.30;13.30;;;;;;;1.62;94.84;98232.64;1607663;89;21055;-74
2022/11/15 00:44:26;;;;;;;23.65;12.30;;;;;;;1.63;94.97;98223.97;1589909;90;21012;-74
2022/11/15 00:47:11;;;;;;;20.25;12.03;;;;;;;1.62;94.69;98224.80;1590148;90;21098;-74
2022/11/15 00:49:56;;;;;;;23.07;12.75;;;;;;;1.60;94.56;98225.65;1601319;89;21324;-74
2022/11/15 00:52:42;;;;;;;24.85;12.07;;;;;;;1.60;94.69;98216.50;1583294;90;21088;-74
2022/11/15 00:55:30;;;;;;;23.10;12.03;;;;;;;1.60;94.69;98216.50;1607567;88;21063;-74
2022/11/15 00:58:15;;;;;;;22.48;11.40;;;;;;;1.62;95.09;98222.64;1587658;90;21495;-74
2022/11/15 01:01:13;;;;;;;20.50;11.30;;;;;;;1.74;95.43;98222.74;1581100;90;21020;-74
2022/11/15 01:03:58;;;;;;;20.45;10.23;;;;;;;1.81;95.29;98213.23;1607475;89;21008;-74
2022/11/15 01:06:43;;;;;;;20.00;10.30;;;;;;;1.84;95.06;98213.27;1615915;87;21119;-74
2022/11/15 01:09:28;;;;;;;17.60;9.50;;;;;;;1.80;94.67;98204.53;1625584;87;21449;-76
2022/11/15 01:12:13;;;;;;;22.35;11.97;;;;;;;1.74;94.46;98210.98;1636807;87;21418;-76
2022/11/15 01:14:58;;;;;;;21.15;11.43;;;;;;;1.71;94.73;98211.83;1636024;87;21064;-76
2022/11/15 01:17:43;;;;;;;21.37;11.10;;;;;;;1.70;94.77;98205.28;1633977;87;21071;-75
2022/11/15 01:20:28;;;;;;;19.20;10.70;;;;;;;1.65;93.95;98201.33;1643789;87;21048;-74
2022/11/15 01:23:14;;;;;;;22.20;10.48;;;;;;;1.59;94.10;98201.28;1643832;87;21450;-74
2022/11/15 01:26:01;;;;;;;20.50;10.25;;;;;;;1.50;93.99;98194.20;1638557;87;21012;-75
2022/11/15 01:28:46;;;;;;;21.20;11.18;;;;;;;1.39;93.75;98190.20;1643896;87;21043;-75
2022/11/15 01:31:31;;;;;;;22.95;10.60;;;;;;;1.35;93.69;98187.52;1643675;87;21012;-75
2022/11/15 01:34:16;;;;;;;21.80;10.45;;;;;;;1.29;93.54;98181.83;1643971;87;21103;-75
2022/11/15 01:37:02;;;;;;;25.17;11.10;;;;;;;1.24;94.27;98179.59;1643596;87;21056;-75
2022/11/15 01:39:46;;;;;;;21.55;11.28;;;;;;;1.23;94.14;98178.70;1643063;87;21052;-75
2022/11/15 01:42:31;;;;;;;;;;;;;;;1.21;94.02;98170.00;1646130;87;21012;-75
2022/11/15 01:45:17;;;;;;;20.80;11.00;;;;;;;1.17;94.37;98162.98;1643802;87;20144;-74
2022/11/15 01:48:03;;;;;;;23.75;10.68;;;;;;;1.16;93.91;98164.70;1643534;87;21462;-73
2022/11/15 01:50:50;;;;;;;19.52;10.78;;;;;;;1.09;93.99;98164.63;1643765;87;20997;-75
2022/11/15 01:53:39;;;;;;;23.25;11.05;;;;;;;1.07;94.45;98159.38;1643495;87;21084;-75
2022/11/15 01:56:29;;;;;;;22.27;10.85;;;;;;;1.15;94.93;98160.77;1643089;87;21032;-73
2022/11/15 01:59:14;;;;;;;21.37;10.68;;;;;;;1.17;94.92;98157.31;1643277;87;21017;-75
2022/11/15 02:02:00;;;;;;;21.50;11.30;;;;;;;1.16;94.72;98155.57;1643720;87;21036;-75
2022/11/15 02:04:48;;;;;;;22.60;11.68;;;;;;;1.14;94.09;98152.08;1643767;87;21017;-74
2022/11/15 02:07:35;;;;;;;25.08;12.47;;;;;;;1.17;94.60;98153.40;1630785;87;21179;-74
2022/11/15 02:10:24;;;;;;;22.95;12.47;;;;;;;1.15;93.99;98149.91;1626498;88;21013;-73
2022/11/15 02:13:10;;;;;;;25.37;12.47;;;;;;;1.11;94.30;98152.45;1637584;88;21012;-75
2022/11/15 02:16:33;;;;;;;28.30;13.65;;;;;;;1.18;94.67;98155.17;1637882;87;21427;-74
2022/11/15 02:19:36;;;;;;;26.10;13.85;;;;;;;1.22;94.29;98146.05;1637963;87;21013;-74
2022/11/15 02:23:04;;;;;;;27.05;13.48;;;;;;;1.23;94.52;98141.27;1637990;87;21005;-74
2022/11/15 02:26:09;;;;;;;27.15;12.98;;;;;;;1.30;95.18;98150.48;1617674;88;21450;-74
2022/11/15 02:29:10;;;;;;;26.82;13.55;;;;;;;1.41;95.36;98151.05;1632006;88;21009;-74
2022/11/15 02:32:23;;;;;;;26.93;12.85;;;;;;;1.35;94.85;98149.23;1631842;87;21508;-74
2022/11/15 02:35:37;;;;;;;26.80;12.47;;;;;;;1.37;94.75;98143.59;1631856;87;21041;-74
2022/11/15 02:38:47;;;;;;;20.08;10.98;;;;;;;1.41;94.98;98149.74;1631803;87;21037;-74
2022/11/15 02:41:52;;;;;;;19.67;10.25;;;;;;;1.43;94.58;98149.31;1631940;87;21033;-74
2022/11/15 02:44:44;;;;;;;20.02;10.45;;;;;;;1.43;94.64;98150.20;1631992;87;21561;-74
2022/11/15 02:47:32;;;;;;;21.62;9.95;;;;;;;1.40;94.51;98147.55;1632037;87;20992;-74
2022/11/15 02:50:22;;;;;;;18.40;9.28;;;;;;;1.33;94.01;98147.05;1615898;88;21403;-74
2022/11/15 02:53:08;;;;;;;19.32;10.45;;;;;;;1.28;94.05;98146.11;1632062;88;21113;-74
2022/11/15 02:55:57;;;;;;;17.62;9.78;;;;;;;1.20;93.86;98148.64;1631767;87;21356;-74
2022/11/15 02:59:06;;;;;;;17.02;8.75;;;;;;;1.16;93.90;98152.10;1623871;88;21013;-73
2022/11/15 03:02:30;;;;;;;22.15;10.38;;;;;;;1.07;93.70;98148.08;1631888;87;21407;-74
2022/11/15 03:05:43;;;;;;;25.72;11.93;;;;;;;1.04;93.83;98152.84;1632114;88;21446;-74
2022/11/15 03:08:39;;;;;;;27.30;13.00;;;;;;;0.94;93.29;98157.48;1638408;87;21079;-75
2022/11/15 03:11:25;;;;;;;32.98;14.75;;;;;;;0.84;93.02;98160.42;1647594;87;21008;-74
2022/11/15 03:14:36;;;;;;;30.62;13.62;;;;;;;0.74;93.11;98149.87;1650884;87;21019;-75
2022/11/15 03:17:42;;;;;;;28.47;13.32;;;;;;;0.72;93.64;98163.76;1651009;86;21032;-74
2022/11/15 03:20:28;;;;;;;22.75;12.23;;;;;;;0.72;93.98;98158.54;1644123;87;21080;-75
2022/11/15 03:23:13;;;;;;;27.13;12.55;;;;;;;0.69;94.16;98155.87;1625650;87;21422;-75
2022/11/15 03:26:01;;;;;;;27.48;12.80;;;;;;;0.69;94.06;98155.47;1639502;87;21012;-74
2022/11/15 03:28:54;;;;;;;25.17;12.60;;;;;;;0.69;94.09;98146.75;1643847;87;21531;-75
2022/11/15 03:31:47;;;;;;;25.27;12.10;;;;;;;0.68;94.28;98145.89;1643418;87;21049;-73
2022/11/15 03:34:40;;;;;;;28.80;12.70;;;;;;;0.67;94.09;98140.66;1625219;87;21040;-74
2022/11/15 03:37:47;;;;;;;22.95;12.07;;;;;;;0.66;93.84;98144.98;1643402;87;21020;-73
2022/11/15 03:40:46;;;;;;;20.37;9.98;;;;;;;0.70;94.11;98139.39;1628778;87;21008;-73
2022/11/15 03:43:42;;;;;;;19.55;10.75;;;;;;;0.74;94.11;98137.25;1643715;87;21009;-73
2022/11/15 03:46:34;;;;;;;19.82;10.43;;;;;;;0.73;93.65;98130.28;1642336;87;21088;-73
2022/11/15 03:49:36;;;;;;;25.10;12.10;;;;;;;0.74;94.19;98132.92;1643922;87;21012;-73
2022/11/15 03:52:22;;;;;;;25.27;11.57;;;;;;;0.76;93.99;98129.92;1627080;87;21467;-74
2022/11/15 03:55:11;;;;;;;27.70;12.65;;;;;;;0.79;94.21;98116.89;1643749;87;21067;-73
2022/11/15 03:57:59;;;;;;;25.72;11.95;;;;;;;0.85;94.30;98123.92;1643667;87;21108;-73
2022/11/15 04:00:44;;;;;;;20.75;10.05;;;;;;;0.86;94.11;98119.14;1626395;87;21001;-74
2022/11/15 04:03:29;;;;;;;23.50;10.82;;;;;;;0.88;94.02;98114.80;1643882;87;21020;-74
2022/11/15 04:06:14;;;;;;;20.62;11.20;;;;;;;0.85;93.81;98116.09;1631936;87;21028;-73
2022/11/15 04:08:59;;;;;;;20.52;10.65;;;;;;;0.78;93.58;98114.25;1640618;87;21020;-75
2022/11/15 04:11:44;;;;;;;19.07;10.78;;;;;;;0.76;93.98;98114.27;1643880;87;20996;-74
2022/11/15 04:14:30;;;;;;;19.67;9.85;;;;;;;0.76;94.02;98105.13;1626661;87;21020;-74
2022/11/15 04:17:14;;;;;;;19.48;10.28;;;;;;;0.73;93.63;98104.20;1640062;87;21005;-75
2022/11/15 04:26:16;;;;;;;17.05;10.23;;;;;;;0.50;92.76;98106.97;1642796;87;21027;-74
2022/11/15 04:32:04;;;;;;;18.98;10.48;;;;;;;0.41;93.53;98104.70;1596675;88;21020;-74
2022/11/15 04:34:49;;;;;;;20.02;10.90;;;;;;;0.43;93.81;98116.00;1625521;87;21000;-74
2022/11/15 04:37:34;;;;;;;19.60;9.85;;;;;;;0.43;93.21;98109.48;1643868;87;21025;-74
2022/11/15 04:40:19;;;;;;;19.32;10.20;;;;;;;0.39;93.52;98106.86;1643605;87;21062;-73
2022/11/15 04:43:04;;;;;;;19.70;11.38;;;;;;;0.41;93.19;98103.39;1643874;87;21000;-74
2022/11/15 04:45:50;;;;;;;20.45;10.35;;;;;;;0.32;92.64;98101.52;1643715;87;20996;-75
2022/11/15 04:48:35;;;;;;;29.67;13.15;;;;;;;0.26;93.13;98106.23;1627231;87;21008;-74
2022/11/15 04:51:20;;;;;;;22.58;11.70;;;;;;;0.29;93.49;98099.75;1643859;87;21012;-73
2022/11/15 04:54:05;;;;;;;27.95;13.20;;;;;;;0.24;93.23;98098.81;1643688;87;21015;-73
2022/11/15 04:56:50;;;;;;;25.60;12.98;;;;;;;0.26;93.89;98090.16;1643816;87;21004;-73
2022/11/15 04:59:35;;;;;;;23.95;12.45;;;;;;;0.30;93.47;98094.12;1643659;87;21045;-73
2022/11/15 05:02:20;;;;;;;25.12;12.37;;;;;;;0.26;93.35;98096.67;1643933;87;21427;-73
2022/11/15 05:05:06;;;;;;;24.02;12.07;;;;;;;0.30;93.26;98095.42;1643449;87;21048;-73
2022/11/15 05:07:51;;;;;;;26.07;12.37;;;;;;;0.25;92.98;98094.06;1628342;87;21071;-73
2022/11/15 05:10:36;;;;;;;24.57;11.73;;;;;;;0.22;93.35;98089.69;1643718;87;21039;-73
2022/11/15 05:13:24;;;;;;;25.92;11.95;;;;;;;0.23;93.61;98092.73;1643879;87;21024;-73
2022/11/15 05:16:09;;;;;;;26.10;13.62;;;;;;;0.30;93.97;98092.40;1625884;87;21045;-73
2022/11/15 05:18:55;;;;;;;24.60;12.63;;;;;;;0.38;94.32;98100.31;1643674;87;21056;-73
2022/11/15 05:21:40;;;;;;;26.60;13.72;;;;;;;0.49;94.53;98097.82;1643677;87;21008;-73
2022/11/15 05:24:25;;;;;;;25.20;12.33;;;;;;;0.50;94.00;98087.41;1642589;87;21016;-73
2022/11/15 05:27:10;;;;;;;24.07;11.90;;;;;;;0.55;94.24;98090.52;1643781;87;21020;-74
2022/11/15 05:29:55;;;;;;;22.27;11.53;;;;;;;0.62;94.40;98097.57;1627677;87;21462;-75
2022/11/15 05:32:40;;;;;;;24.63;12.07;;;;;;;0.63;94.19;98094.95;1643625;87;21466;-75
2022/11/15 05:35:39;;;;;;;25.68;11.05;;;;;;;0.69;94.18;98110.23;1643847;87;21004;-72
2022/11/15 05:38:24;;;;;;;27.75;11.63;;;;;;;0.70;94.29;98105.03;1627476;87;21422;-73
2022/11/15 05:41:09;;;;;;;23.92;12.03;;;;;;;0.67;93.96;98100.22;1643839;87;21013;-73
2022/11/15 05:43:54;;;;;;;21.10;11.80;;;;;;;0.64;93.98;98105.86;1639042;87;21374;-73
2022/11/15 05:46:41;;;;;;;20.80;11.35;;;;;;;0.60;93.57;98099.27;1643574;87;20993;-73
2022/11/15 05:49:30;;;;;;;25.95;11.85;;;;;;;0.55;93.51;98087.48;1636700;87;21060;-68
2022/11/15 05:52:19;;;;;;;21.65;11.35;;;;;;;0.55;93.56;98086.19;1643562;87;21008;-73
2022/11/15 05:55:08;;;;;;;24.05;11.15;;;;;;;0.54;93.87;98086.16;1643972;87;21407;-73
2022/11/15 05:57:53;;;;;;;22.50;11.90;;;;;;;0.54;93.75;98087.47;1643663;87;21056;-74
2022/11/15 06:00:38;;;;;;;20.15;10.60;;;;;;;0.54;93.71;98093.53;1644029;87;21040;-74
2022/11/15 06:03:23;;;;;;;23.85;12.07;;;;;;;0.54;93.61;98096.14;1643747;87;21013;-73
2022/11/15 06:06:08;;;;;;;28.92;12.85;;;;;;;0.54;93.51;98095.29;1643873;87;21004;-74
2022/11/15 06:08:53;;;;;;;22.85;11.05;;;;;;;0.45;92.68;98093.00;1630471;87;21092;-74
2022/11/15 06:11:38;;;;;;;24.65;11.93;;;;;;;0.41;93.31;98082.08;1588907;90;21049;-74
2022/11/15 06:14:23;;;;;;;25.32;12.85;;;;;;;0.46;93.64;98085.63;1599320;90;21021;-74
2022/11/15 06:17:08;;;;;;;26.40;12.93;;;;;;;0.48;93.94;98085.64;1626574;88;21005;-74
2022/11/15 06:19:53;;;;;;;21.45;11.35;;;;;;;0.51;93.47;98096.13;1626909;88;21021;-74
2022/11/15 06:22:37;;;;;;;22.80;12.33;;;;;;;0.49;93.72;98095.22;1624402;88;21025;-74
2022/11/15 06:25:22;;;;;;;23.90;11.80;;;;;;;0.48;93.71;98093.05;1626200;88;21076;-74
2022/11/15 06:28:07;;;;;;;24.30;11.68;;;;;;;0.51;93.64;98100.89;1610266;88;21486;-74
2022/11/15 06:30:52;;;;;;;24.50;12.15;;;;;;;0.51;93.27;98100.04;1570800;90;21059;-74
2022/11/15 06:33:38;;;;;;;;;;;;;;;0.50;93.21;98099.16;1587074;90;21104;-74
2022/11/15 06:36:23;;;;;;;26.57;12.25;;;;;;;0.52;93.70;98095.27;1594282;90;20096;-74
2022/11/15 06:39:08;;;;;;;27.85;13.68;;;;;;;0.53;93.71;98095.70;1624301;88;20982;-74
2022/11/15 06:41:53;;;;;;;33.15;14.65;;;;;;;0.54;93.48;98088.32;1635412;87;21017;-73
2022/11/15 06:44:38;;;;;;;33.23;14.90;;;;;;;0.57;93.53;98096.19;1632556;87;21028;-73
2022/11/15 06:47:22;;;;;;;30.97;15.28;;;;;;;0.59;93.10;98099.72;1613214;87;21454;-73
2022/11/15 06:50:09;;;;;;;33.53;16.30;;;;;;;0.63;93.27;98098.87;1616184;88;21041;-74
2022/11/15 06:52:54;;;;;;;27.95;14.85;;;;;;;0.70;93.57;98096.36;1619003;88;20985;-74
2022/11/15 06:55:39;;;;;;;32.58;15.70;;;;;;;0.69;92.66;98099.80;1619097;88;21426;-74
2022/11/15 06:58:24;;;;;;;;;;;;;;;0.73;93.24;98095.06;1626007;88;20997;-74
2022/11/15 07:01:12;;;;;;;41.07;17.60;;;;;;;0.75;93.32;98098.14;1612504;88;20114;-73
2022/11/15 07:03:56;;;;;;;36.35;16.17;;;;;;;0.83;93.47;98093.00;1629875;88;21072;-73
2022/11/15 07:06:41;;;;;;;;;;;;;;;0.89;93.31;98082.66;1630704;87;21077;-73
2022/11/15 07:09:26;;;;;;;31.53;15.77;;;;;;;0.95;93.27;98083.58;1618262;88;20091;-73
2022/11/15 07:12:11;;;;;;;34.25;15.75;;;;;;;0.95;93.07;98078.36;1629478;88;21125;-73
2022/11/15 07:14:56;;;;;;;29.23;14.18;;;;;;;0.98;93.42;98071.42;1619841;88;21475;-73
2022/11/15 07:17:41;;;;;;;29.15;15.43;;;;;;;0.92;92.51;98074.84;1613187;88;21025;-73
2022/11/15 07:20:26;;;;;;;27.90;14.13;;;;;;;0.88;92.68;98076.97;1618186;88;21068;-74
2022/11/15 07:23:13;;;;;;;38.93;18.23;;;;;;;0.90;92.70;98071.77;1602098;88;28637;-75
2022/11/15 07:25:58;;;;;;;36.10;16.65;;;;;;;1.04;91.61;98074.54;1607205;88;21061;-74
2022/11/15 07:28:45;;;;;;;43.68;17.32;;;;;;;0.97;91.54;98072.30;1574611;90;21038;-74
2022/11/15 07:31:30;;;;;;;37.80;16.80;;;;;;;0.94;91.33;98073.55;1622341;88;21040;-74
2022/11/15 07:34:15;;;;;;;42.85;17.77;;;;;;;0.86;91.28;98075.20;1603243;88;21447;-74
2022/11/15 07:37:00;;;;;;;37.23;16.87;;;;;;;0.82;91.80;98078.66;1619251;88;21020;-75
2022/11/15 07:39:45;;;;;;;38.80;17.48;;;;;;;0.80;91.46;98070.81;1612727;88;21414;-74
2022/11/15 07:45:43;;;;;;;39.63;17.70;;;;;;;0.81;91.58;98074.28;1617452;88;21008;-72
2022/11/15 07:48:29;;;;;;;40.28;18.67;;;;;;;0.78;91.75;98073.40;1610289;88;21061;-73
2022/11/15 07:51:16;;;;;;;44.85;18.45;;;;;;;0.83;91.89;98071.27;1605708;88;21021;-73
2022/11/15 07:54:01;;;;;;;39.75;18.55;;;;;;;0.80;91.34;98074.72;1605811;88;21020;-73
2022/11/15 07:56:49;;;;;;;38.75;17.62;;;;;;;0.83;91.97;98074.73;1605708;88;21020;-72
2022/11/15 07:59:34;;;;;;;36.68;16.48;;;;;;;0.87;92.15;98073.92;1619415;88;21017;-72
2022/11/15 08:02:19;;;;;;;41.23;18.05;;;;;;;0.91;91.58;98071.79;1574384;90;21045;-72
2022/11/15 08:05:04;;;;;;;;;;;;;;;0.85;91.42;98072.16;1603571;88;21137;-73
2022/11/15 08:07:49;;;;;;;46.75;19.80;;;;;;;0.89;92.04;98069.61;1564031;90;20127;-73
2022/11/15 08:10:35;;;;;;;43.45;21.00;;;;;;;0.94;92.04;98066.14;1585893;89;22100;-73
2022/11/15 08:13:21;;;;;;;54.50;22.73;;;;;;;0.93;92.07;98060.07;1586122;89;21430;-72
2022/11/15 08:16:06;;;;;;;59.20;23.90;;;;;;;0.96;92.04;98061.42;1590567;89;21032;-73
2022/11/15 08:18:51;;;;;;;52.30;22.93;;;;;;;1.01;91.83;98054.50;1602923;89;21065;-72
2022/11/15 08:21:37;;;;;;;;;;;;;;;1.04;92.20;98052.36;1575526;90;21038;-73
2022/11/15 08:24:22;;;;;;;53.13;22.45;;;;;;;1.13;92.04;98045.03;1579423;90;20447;-72
2022/11/15 08:27:14;;;;;;;51.85;21.60;;;;;;;1.14;91.92;98048.97;1574694;90;21091;-72
2022/11/15 08:29:57;;;;;;;54.33;21.57;;;;;;;1.03;91.86;98043.64;1576940;90;21054;-72
2022/11/15 08:32:41;;;;;;;59.77;23.05;;;;;;;1.15;92.10;98040.69;1561007;90;21460;-72
2022/11/15 08:35:26;;;;;;;57.50;23.65;;;;;;;1.25;92.15;98032.06;1554447;90;21049;-72
2022/11/15 08:38:11;;;;;;;59.45;24.23;;;;;;;1.33;91.99;98024.33;1558504;90;21040;-72
2022/11/15 08:41:05;;;;;;;57.35;23.32;;;;;;;1.39;91.51;98024.37;1552768;91;21089;-73
2022/11/15 08:43:50;;;;;;;53.90;23.90;;;;;;;1.44;91.44;98023.97;1572290;91;21010;-72
2022/11/15 08:46:35;;;;;;;50.48;22.55;;;;;;;1.55;91.81;98032.31;1572966;91;21049;-73
2022/11/15 08:49:21;;;;;;;55.80;22.73;;;;;;;1.69;92.06;98035.89;1594282;90;21000;-73
2022/11/15 08:52:06;;;;;;;55.10;22.85;;;;;;;1.80;91.67;98021.60;1572134;91;21073;-72
2022/11/15 08:54:51;;;;;;;52.58;22.67;;;;;;;1.86;91.11;98018.13;1578836;90;20996;-72
2022/11/15 08:57:36;;;;;;;51.55;21.52;;;;;;;1.93;90.97;98019.04;1594480;89;21061;-72
2022/11/15 09:00:21;;;;;;;55.83;23.20;;;;;;;1.91;90.41;98005.95;1604411;89;21027;-72
2022/11/15 09:03:08;;;;;;;44.48;21.82;;;;;;;1.98;91.15;98008.17;1598884;89;21028;-74
2022/11/15 09:05:58;;;;;;;49.45;21.97;;;;;;;2.08;91.27;98005.19;1592341;89;21112;-74
2022/11/15 09:08:43;;;;;;;50.98;22.80;;;;;;;2.05;89.77;98007.36;1609097;88;21148;-75
2022/11/15 09:11:28;;;;;;;52.03;22.75;;;;;;;1.89;89.25;98005.09;1587505;90;21109;-74
2022/11/15 09:14:14;;;;;;;56.28;22.65;;;;;;;1.68;89.15;98004.11;1598053;90;21454;-74
2022/11/15 09:17:01;;;;;;;48.80;22.42;;;;;;;1.74;90.66;98005.01;1626240;88;21041;-74
2022/11/15 09:19:46;;;;;;;26.70;12.18;;;;;;;1.84;90.70;97997.66;1602233;88;21018;-73
2022/11/15 09:22:31;;;;;;;23.15;12.47;;;;;;;1.87;90.28;97993.73;1586159;89;21060;-73
2022/11/15 09:25:16;;;;;;;22.35;11.33;;;;;;;1.89;90.02;97993.33;1589853;89;20983;-72
2022/11/15 09:28:05;;;;;;;20.72;11.83;;;;;;;1.89;89.05;97993.75;1591352;90;21042;-74
2022/11/15 09:30:49;;;;;;;28.10;13.35;;;;;;;1.93;89.66;97983.75;1600796;88;21096;-73
2022/11/15 09:33:34;;;;;;;35.90;16.10;;;;;;;1.93;89.21;97980.72;1611826;88;21024;-72
2022/11/15 09:36:19;;;;;;;34.78;19.05;;;;;;;2.00;89.82;97976.41;1624536;88;21032;-74
2022/11/15 09:39:05;;;;;;;41.28;20.48;;;;;;;2.01;88.95;97985.98;1617102;88;20997;-73
2022/11/15 09:42:09;;;;;;;41.77;21.07;;;;;;;2.01;88.95;97965.08;1618184;88;21043;-73
2022/11/15 09:45:19;;;;;;;39.75;20.92;;;;;;;2.06;89.09;97965.97;1608998;88;21076;-73
2022/11/15 09:48:26;;;;;;;41.35;18.95;;;;;;;2.05;88.71;97960.30;1605990;88;21028;-74
2022/11/15 09:51:00;;;;;;;36.42;19.50;;;;;;;2.15;89.57;97944.66;1621590;87;21095;-73
2022/11/15 09:53:38;;;;;;;35.05;18.80;;;;;;;2.19;88.93;97944.66;1612159;88;21028;-73
2022/11/15 09:56:21;;;;;;;28.47;16.42;;;;;;;2.25;88.94;97942.50;1611342;88;21016;-74
2022/11/15 09:59:05;;;;;;;24.43;14.35;;;;;;;2.25;88.35;97941.19;1621620;88;21016;-74
2022/11/15 10:02:06;;;;;;;23.45;13.98;;;;;;;2.27;88.95;97934.22;1573026;90;21031;-74
2022/11/15 10:04:34;;;;;;;24.75;14.18;;;;;;;2.36;87.82;97935.55;1576938;90;21009;-74
2022/11/15 10:07:27;;;;;;;23.90;13.70;;;;;;;2.33;88.37;97927.69;1575911;90;21557;-73
2022/11/15 10:09:59;;;;;;;27.27;14.85;;;;;;;2.45;88.41;97922.91;1638455;87;21379;-74
2022/11/15 10:12:27;;;;;;;26.70;15.70;;;;;;;2.61;88.84;97916.39;1643382;86;21013;-73
2022/11/15 10:15:09;;;;;;;27.93;15.93;;;;;;;2.74;88.55;97916.00;1650807;87;21013;-74
2022/11/15 10:18:16;;;;;;;24.65;14.80;;;;;;;2.86;88.11;97920.36;1640127;86;21535;-75
2022/11/15 10:20:54;;;;;;;27.37;16.00;;;;;;;2.98;88.25;97915.53;1589784;88;21073;-74
2022/11/15 10:23:23;;;;;;;31.93;16.17;;;;;;;3.03;87.67;97908.12;1630910;87;20988;-75
2022/11/15 10:25:59;;;;;;;26.30;15.23;;;;;;;3.01;86.04;97905.07;1635141;87;21007;-74
2022/11/15 10:28:30;;;;;;;26.95;13.45;;;;;;;2.98;85.96;97902.44;1635838;87;21016;-74
2022/11/15 10:31:01;;;;;;;25.65;15.32;;;;;;;2.90;86.44;97897.21;1595770;88;21034;-75
2022/11/15 10:33:40;;;;;;;23.38;15.23;;;;;;;2.98;87.12;97888.05;1595427;90;21030;-74
2022/11/15 10:36:19;;;;;;;26.33;14.38;;;;;;;3.09;87.13;97881.50;1645505;87;21524;-73
2022/11/15 10:38:54;;;;;;;21.97;13.68;;;;;;;3.14;87.19;97875.81;1632722;87;21488;-73
2022/11/15 10:41:29;;;;;;;27.13;14.53;;;;;;;3.26;87.14;97877.11;1584899;90;21086;-73
2022/11/15 10:44:13;;;;;;;32.70;14.83;;;;;;;3.42;87.00;97878.38;1650101;87;21043;-73
2022/11/15 10:46:42;;;;;;;28.75;15.93;;;;;;;3.53;86.68;97868.73;1624292;87;21464;-73
2022/11/15 10:49:30;;;;;;;30.82;17.75;;;;;;;3.56;86.28;97862.18;1639230;87;20996;-72
2022/11/15 10:52:11;;;;;;;34.50;18.37;;;;;;;3.58;85.83;97877.02;1625838;88;21042;-73
2022/11/15 10:55:02;;;;;;;40.10;19.65;;;;;;;3.56;85.47;97867.42;1642200;87;21063;-74
2022/11/15 10:57:38;;;;;;;31.73;16.62;;;;;;;3.62;85.54;97865.66;1638857;86;21418;-74
2022/11/15 11:00:29;;;;;;;37.23;18.42;;;;;;;3.70;85.46;97867.36;1623040;87;21074;-73
2022/11/15 11:03:10;;;;;;;29.30;16.82;;;;;;;3.61;84.96;97864.77;1626124;87;21044;-73
2022/11/15 11:05:39;;;;;;;25.45;15.38;;;;;;;3.69;86.20;97852.95;1642520;87;21012;-73
2022/11/15 11:08:13;;;;;;;30.48;17.80;;;;;;;3.87;86.19;97851.13;1617795;87;20980;-73
2022/11/15 11:10:56;;;;;;;29.42;17.95;;;;;;;3.99;85.16;97833.16;1630548;87;21005;-73
2022/11/15 11:13:33;;;;;;;31.70;16.77;;;;;;;4.03;85.72;97830.48;1631983;87;21055;-72
2022/11/15 11:16:23;;;;;;;29.70;16.35;;;;;;;4.18;85.65;97828.23;1626219;87;21024;-72
2022/11/15 11:19:05;;;;;;;19.62;12.82;;;;;;;4.34;85.69;97823.75;1628526;87;21008;-74
2022/11/15 11:21:46;;;;;;;19.37;12.80;;;;;;;4.51;85.05;97813.55;1631179;87;21036;-74
2022/11/15 11:24:25;;;;;;;25.95;15.30;;;;;;;4.56;84.75;97812.19;1628947;87;21055;-74
2022/11/15 11:27:29;;;;;;;26.00;15.60;;;;;;;4.60;84.07;97802.09;1625557;87;21039;-73
2022/11/15 11:30:18;;;;;;;26.27;16.25;;;;;;;4.56;84.24;97797.33;1627950;87;21040;-71
2022/11/15 11:33:17;;;;;;;26.25;14.38;;;;;;;4.54;84.15;97789.92;1625328;87;21058;-70
2022/11/15 11:36:18;;;;;;;24.52;14.73;;;;;;;4.58;84.22;97785.08;1630099;87;21016;-70
2022/11/15 11:39:21;;;;;;;26.15;16.02;;;;;;;4.72;84.08;97779.69;1619917;87;21068;-71
2022/11/15 11:42:05;;;;;;;20.00;12.30;;;;;;;4.81;83.02;97772.62;1630877;87;21079;-70
2022/11/15 11:45:22;;;;;;;23.38;11.90;;;;;;;4.89;83.05;97780.84;1630900;87;21081;-70
2022/11/15 11:48:14;;;;;;;21.07;13.00;;;;;;;4.96;83.34;97767.63;1624652;87;21429;-71
2022/11/15 11:50:44;;;;;;;19.42;12.78;;;;;;;5.02;82.96;97761.88;1544583;87;21044;-71
2022/11/15 11:53:16;;;;;;;24.12;14.18;;;;;;;5.12;83.06;97751.27;1619968;87;21450;-71
2022/11/15 11:55:52;;;;;;;22.62;13.22;;;;;;;5.19;83.30;97748.98;1629884;87;21011;-70
2022/11/15 11:58:27;;;;;;;18.27;12.43;;;;;;;5.23;82.19;97748.52;1614337;87;21000;-73
2022/11/15 12:00:59;;;;;;;17.48;11.85;;;;;;;5.19;82.50;97746.35;1618012;87;21014;-74
2022/11/15 12:03:37;;;;;;;17.25;11.33;;;;;;;5.17;81.83;97745.95;1629961;87;21434;-73
2022/11/15 12:06:12;;;;;;;17.50;10.30;;;;;;;5.08;81.85;97745.62;1635463;87;21410;-67
2022/11/15 12:09:09;;;;;;;23.22;14.23;;;;;;;4.94;82.33;97741.38;1620725;87;21469;-67
2022/11/15 12:11:56;;;;;;;20.02;13.28;;;;;;;4.96;82.94;97735.69;1616970;87;21032;-67
2022/11/15 12:14:34;;;;;;;19.65;11.43;;;;;;;4.92;82.63;97730.03;1619989;87;21040;-67
2022/11/15 12:17:00;;;;;;;20.52;12.20;;;;;;;4.91;82.56;97733.55;1618659;87;21060;-67
2022/11/15 12:19:31;;;;;;;21.25;12.55;;;;;;;4.77;82.35;97738.09;1620173;87;21043;-67
2022/11/15 12:22:06;;;;;;;20.57;13.70;;;;;;;4.58;83.04;97736.52;1623857;87;21446;-67
2022/11/15 12:24:51;;;;;;;24.05;14.87;;;;;;;4.51;83.29;97728.26;1628165;87;21572;-66
2022/11/15 12:27:50;;;;;;;21.93;13.50;;;;;;;4.42;83.64;97725.72;1620533;87;21469;-66
2022/11/15 12:30:23;;;;;;;22.80;14.65;;;;;;;4.38;84.34;97720.06;1629144;87;20992;-66
2022/11/15 12:33:02;;;;;;;22.17;13.38;;;;;;;4.49;84.12;97723.48;1623510;87;21437;-66
2022/11/15 12:35:39;;;;;;;25.08;14.93;;;;;;;4.51;84.35;97726.95;1624813;87;21023;-66
2022/11/15 12:38:16;;;;;;;37.45;19.30;;;;;;;4.62;84.72;97731.64;1627112;87;21023;-68
2022/11/15 12:41:17;;;;;;;29.95;18.32;;;;;;;4.69;84.21;97719.79;1615994;87;21047;-67
2022/11/15 12:43:48;;;;;;;32.05;17.40;;;;;;;4.78;84.78;97718.38;1619486;87;21024;-68
2022/11/15 12:46:35;;;;;;;40.08;20.15;;;;;;;4.83;84.62;97715.69;1628098;87;21069;-67
2022/11/15 12:49:31;;;;;;;32.95;17.87;;;;;;;4.89;84.84;97711.67;1622465;87;22243;-66
2022/11/15 12:52:04;;;;;;;30.17;15.90;;;;;;;4.89;84.33;97709.94;1617082;87;21056;-67
2022/11/15 12:54:41;;;;;;;30.95;15.85;;;;;;;4.85;84.59;97704.28;1622600;87;21028;-67
2022/11/15 12:57:33;;;;;;;30.10;16.05;;;;;;;4.84;83.91;97702.98;1618493;87;21459;-66
2022/11/15 13:00:23;;;;;;;34.40;14.83;;;;;;;4.84;84.68;97704.30;1635520;87;21068;-66
2022/11/15 13:02:50;;;;;;;29.52;16.73;;;;;;;4.85;84.56;97703.41;1624269;87;21071;-67
2022/11/15 13:05:22;;;;;;;31.45;16.40;;;;;;;4.83;84.59;97703.88;1632048;87;21043;-66
2022/11/15 13:07:58;;;;;;;38.05;20.12;;;;;;;4.78;84.46;97698.69;1640220;87;21028;-68